createdAt,value
2022-08-23T00:03:07.756Z,18.30
2022-08-23T00:07:13.560Z,18.30
2022-08-23T00:11:31.418Z,18.10
2022-08-23T00:15:33.672Z,18.20
2022-08-23T00:19:36.747Z,18.10
2022-08-23T00:23:38.808Z,18.00
2022-08-23T00:27:40.826Z,18.20
2022-08-23T00:31:42.780Z,18.20
2022-08-23T00:35:44.716Z,18.10
2022-08-23T00:39:46.745Z,18.00
2022-08-23T00:44:07.322Z,18.00
2022-08-23T00:48:09.461Z,18.10
2022-08-23T00:52:48.669Z,18.10
2022-08-23T00:56:52.017Z,18.20
2022-08-23T01:00:55.437Z,18.20
2022-08-23T01:04:59.431Z,18.10
2022-08-23T01:09:18.210Z,17.90
2022-08-23T01:13:25.512Z,18.00
2022-08-23T01:17:33.857Z,18.10
2022-08-23T01:21:49.313Z,18.10
2022-08-23T01:25:54.271Z,18.10
2022-08-23T01:29:56.242Z,18.20
2022-08-23T01:34:02.324Z,18.10
2022-08-23T01:38:05.627Z,18.00
2022-08-23T01:42:08.212Z,18.00
2022-08-23T01:46:18.036Z,18.10
2022-08-23T01:50:20.146Z,18.10
2022-08-23T01:54:22.485Z,18.30
2022-08-23T01:58:25.005Z,18.30
2022-08-23T02:02:27.146Z,18.20
2022-08-23T02:06:30.135Z,18.10
2022-08-23T02:10:32.058Z,18.20
2022-08-23T02:14:34.071Z,18.20
2022-08-23T02:18:36.107Z,18.20
2022-08-23T02:22:39.720Z,18.10
2022-08-23T02:26:49.826Z,18.00
2022-08-23T02:30:58.500Z,17.90
2022-08-23T02:35:04.882Z,17.90
2022-08-23T02:39:10.111Z,17.90
2022-08-23T02:43:12.325Z,17.90
2022-08-23T02:47:14.334Z,17.80
2022-08-23T02:51:17.447Z,17.80
2022-08-23T02:55:19.502Z,17.90
2022-08-23T02:59:21.416Z,17.70
2022-08-23T03:03:23.898Z,17.60
2022-08-23T03:07:25.883Z,17.70
2022-08-23T03:11:28.447Z,17.70
2022-08-23T03:15:30.749Z,17.60
2022-08-23T03:19:32.815Z,17.50
2022-08-23T03:23:36.205Z,17.40
2022-08-23T03:27:44.758Z,17.40
2022-08-23T03:31:46.962Z,19.00
2022-08-23T03:35:49.475Z,17.40
2022-08-23T03:39:52.366Z,17.30
2022-08-23T03:43:54.295Z,17.40
2022-08-23T03:47:56.288Z,17.40
2022-08-23T03:52:00.390Z,17.40
2022-08-23T03:56:02.635Z,17.40
2022-08-23T04:00:07.584Z,17.50
2022-08-23T04:04:09.623Z,17.50
2022-08-23T04:08:12.090Z,17.60
2022-08-23T04:12:17.648Z,17.50
2022-08-23T04:16:20.228Z,17.40
2022-08-23T04:20:22.225Z,17.40
2022-08-23T04:24:24.400Z,17.50
2022-08-23T04:28:26.564Z,17.60
2022-08-23T04:32:28.729Z,17.70
2022-08-23T04:36:34.801Z,17.60
2022-08-23T04:40:55.437Z,17.40
2022-08-23T04:44:57.741Z,17.50
2022-08-23T04:48:59.849Z,17.50
2022-08-23T04:53:01.962Z,17.50
2022-08-23T04:57:04.050Z,17.50
2022-08-23T05:01:08.771Z,17.50
2022-08-23T05:05:11.163Z,17.50
2022-08-23T05:09:17.122Z,17.50
2022-08-23T05:13:22.320Z,17.60
2022-08-23T05:17:26.663Z,17.70
2022-08-23T05:21:28.609Z,17.70
2022-08-23T05:25:49.615Z,17.70
2022-08-23T05:29:56.211Z,17.90
2022-08-23T05:33:59.101Z,18.20
2022-08-23T05:38:01.376Z,18.40
2022-08-23T05:42:03.692Z,18.60
2022-08-23T05:46:26.588Z,18.80
2022-08-23T05:50:30.224Z,19.00
2022-08-23T05:54:35.636Z,19.30
2022-08-23T05:58:38.118Z,19.50
2022-08-23T06:02:40.052Z,19.50
2022-08-23T06:06:43.388Z,19.50
2022-08-23T06:10:45.444Z,19.50
2022-08-23T06:14:47.387Z,19.50
2022-08-23T06:18:49.796Z,19.50
2022-08-23T06:22:51.707Z,19.60
2022-08-23T06:26:54.144Z,19.90
2022-08-23T06:30:57.557Z,19.90
2022-08-23T06:35:39.489Z,20.20
2022-08-23T06:39:24.522Z,20.30
2022-08-23T06:43:26.476Z,19.90
2022-08-23T06:47:28.813Z,19.90
2022-08-23T06:51:38.732Z,20.20
2022-08-23T06:55:41.569Z,20.40
2022-08-23T06:59:43.575Z,20.50
2022-08-23T07:03:45.956Z,21.00
2022-08-23T07:07:47.824Z,21.10
2022-08-23T07:11:50.176Z,21.30
2022-08-23T07:15:56.681Z,21.80
2022-08-23T07:19:58.628Z,22.50
2022-08-23T07:24:00.586Z,23.00
2022-08-23T07:28:02.869Z,23.30
2022-08-23T07:32:05.464Z,23.80
2022-08-23T07:36:09.359Z,24.40
2022-08-23T07:40:17.719Z,25.00
2022-08-23T07:44:23.545Z,25.40
2022-08-23T07:48:52.515Z,25.30
2022-08-23T07:52:51.902Z,25.90
2022-08-23T07:56:53.851Z,27.00
2022-08-23T08:00:55.774Z,27.60
2022-08-23T08:04:57.826Z,27.70
2022-08-23T08:09:00.217Z,27.70
2022-08-23T08:13:02.279Z,27.80
2022-08-23T08:17:04.527Z,28.70
2022-08-23T08:21:06.628Z,28.80
2022-08-23T08:25:10.174Z,28.30
2022-08-23T08:29:13.542Z,27.90
2022-08-23T08:33:15.479Z,27.50
2022-08-23T08:37:17.403Z,28.10
2022-08-23T08:41:25.188Z,29.50
2022-08-23T08:45:37.767Z,30.70
2022-08-23T08:49:45.016Z,31.50
2022-08-23T08:53:49.539Z,31.90
2022-08-23T08:57:55.036Z,32.10
2022-08-23T09:01:58.837Z,32.70
2022-08-23T09:06:09.666Z,33.00
2022-08-23T09:10:20.745Z,33.20
2022-08-23T09:14:25.545Z,32.10
2022-08-23T09:18:31.076Z,32.70
2022-08-23T09:22:46.098Z,33.20
2022-08-23T09:26:48.192Z,33.40
2022-08-23T09:30:56.553Z,33.40
2022-08-23T09:35:25.869Z,33.70
2022-08-23T09:39:37.443Z,33.80
2022-08-23T09:43:44.993Z,34.00
2022-08-23T09:47:47.009Z,34.10
2022-08-23T09:51:50.638Z,34.60
2022-08-23T09:55:58.847Z,34.20
2022-08-23T10:00:18.704Z,34.10
2022-08-23T10:04:47.332Z,34.50
2022-08-23T10:08:56.472Z,34.50
2022-08-23T10:12:59.747Z,34.40
2022-08-23T10:17:11.730Z,34.40
2022-08-23T10:21:24.162Z,34.40
2022-08-23T10:26:07.104Z,33.70
2022-08-23T10:30:12.933Z,33.70
2022-08-23T10:34:17.945Z,33.50
2022-08-23T10:38:38.084Z,33.00
2022-08-23T10:42:51.926Z,32.20
2022-08-23T10:47:22.036Z,32.50
2022-08-23T10:51:31.703Z,31.50
2022-08-23T10:55:55.133Z,31.20
2022-08-23T10:59:59.191Z,32.20
2022-08-23T11:04:23.772Z,32.50
2022-08-23T11:08:34.969Z,32.10
2022-08-23T11:12:56.239Z,32.80
2022-08-23T11:17:01.203Z,33.00
2022-08-23T11:21:18.188Z,33.00
2022-08-23T11:25:19.967Z,33.20
2022-08-23T11:29:24.721Z,33.00
2022-08-23T11:33:35.681Z,32.80
2022-08-23T11:38:00.424Z,33.10
2022-08-23T11:42:07.179Z,32.30
2022-08-23T11:46:27.481Z,31.80
2022-08-23T11:51:12.679Z,31.80
2022-08-23T11:55:17.756Z,31.90
2022-08-23T11:59:54.291Z,31.80
2022-08-23T12:04:08.715Z,31.70
2022-08-23T12:08:17.066Z,31.60
2022-08-23T12:12:37.821Z,31.10
2022-08-23T12:16:44.246Z,30.80
2022-08-23T12:20:59.005Z,30.80
2022-08-23T12:25:05.092Z,30.40
2022-08-23T12:29:23.612Z,30.30
2022-08-23T12:33:45.859Z,30.20
2022-08-23T12:38:09.447Z,29.90
2022-08-23T12:42:24.637Z,29.60
2022-08-23T12:46:32.545Z,29.50
2022-08-23T12:50:40.551Z,29.30
2022-08-23T12:54:45.247Z,29.30
2022-08-23T12:58:54.154Z,28.80
2022-08-23T13:03:01.634Z,28.90
2022-08-23T13:07:07.594Z,28.90
2022-08-23T13:11:11.681Z,29.00
2022-08-23T13:15:54.415Z,28.80
2022-08-23T13:20:02.267Z,28.50
2022-08-23T13:24:36.594Z,28.50
2022-08-23T13:28:40.173Z,28.30
2022-08-23T13:32:46.955Z,28.20
2022-08-23T13:36:50.103Z,28.20
2022-08-23T13:40:53.701Z,28.20
2022-08-23T13:44:55.760Z,28.00
2022-08-23T13:49:24.639Z,27.90
2022-08-23T13:53:29.389Z,27.30
2022-08-23T13:57:37.074Z,26.90
2022-08-23T14:01:39.149Z,27.20
2022-08-23T14:05:41.052Z,27.60
2022-08-23T14:09:43.321Z,27.80
2022-08-23T14:13:47.567Z,27.70
2022-08-23T14:17:51.803Z,27.60
2022-08-23T14:21:53.993Z,27.40
2022-08-23T14:25:58.428Z,27.60
2022-08-23T14:30:00.523Z,27.60
2022-08-23T14:34:02.523Z,27.30
2022-08-23T14:38:05.216Z,27.20
2022-08-23T14:42:07.792Z,27.50
2022-08-23T14:46:09.755Z,27.10
2022-08-23T14:50:14.108Z,26.70
2022-08-23T14:54:20.660Z,26.80
2022-08-23T14:58:24.374Z,26.80
2022-08-23T15:02:27.723Z,26.60
2022-08-23T15:06:30.322Z,26.40
2022-08-23T15:14:57.092Z,26.30
2022-08-23T15:18:59.971Z,26.30
2022-08-23T15:23:02.458Z,26.40
2022-08-23T15:27:05.069Z,26.30
2022-08-23T15:31:07.028Z,26.50
2022-08-23T15:35:09.848Z,26.50
2022-08-23T15:39:11.773Z,26.70
2022-08-23T15:43:13.714Z,26.50
2022-08-23T15:47:28.739Z,26.50
2022-08-23T15:51:31.174Z,26.40
2022-08-23T15:55:33.633Z,26.10
2022-08-23T15:59:37.886Z,26.00
2022-08-23T16:03:44.004Z,25.90
2022-08-23T16:07:46.661Z,25.80
2022-08-23T16:11:49.182Z,25.70
2022-08-23T16:15:51.513Z,25.70
2022-08-23T16:19:54.182Z,25.50
2022-08-23T16:23:57.758Z,25.50
2022-08-23T16:27:59.988Z,25.40
2022-08-23T16:32:03.242Z,25.20
2022-08-23T16:36:05.482Z,25.10
2022-08-23T16:40:08.804Z,25.00
2022-08-23T16:44:10.764Z,24.80
2022-08-23T16:48:14.888Z,24.80
2022-08-23T16:52:17.463Z,24.80
2022-08-23T16:56:22.551Z,24.70
2022-08-23T17:00:24.506Z,24.80
2022-08-23T17:04:30.614Z,24.70
2022-08-23T17:08:32.789Z,24.60
2022-08-23T17:12:37.901Z,24.50
2022-08-23T17:16:41.813Z,24.30
2022-08-23T17:20:44.090Z,23.70
2022-08-23T17:24:45.995Z,23.20
2022-08-23T17:28:48.332Z,22.80
2022-08-23T17:32:50.986Z,22.40
2022-08-23T17:36:55.186Z,22.20
2022-08-23T17:40:57.727Z,22.00
2022-08-23T17:44:59.619Z,21.80
2022-08-23T17:49:01.801Z,21.70
2022-08-23T17:53:04.664Z,21.50
2022-08-23T17:57:08.215Z,21.40
2022-08-23T18:01:11.144Z,21.30
2022-08-23T18:05:13.376Z,21.10
2022-08-23T18:09:15.540Z,20.80
2022-08-23T18:13:17.683Z,20.60
2022-08-23T18:17:19.883Z,20.50
2022-08-23T18:21:21.896Z,20.20
2022-08-23T18:25:24.642Z,20.20
2022-08-23T18:29:26.815Z,19.80
2022-08-23T18:33:32.234Z,19.70
2022-08-23T18:37:48.543Z,19.40
2022-08-23T18:41:50.558Z,19.20
2022-08-23T18:45:56.201Z,19.10
2022-08-23T18:49:58.243Z,19.00
2022-08-23T18:54:00.255Z,18.80
2022-08-23T18:58:03.557Z,18.70
2022-08-23T19:02:05.706Z,18.70
2022-08-23T19:06:07.810Z,18.60
2022-08-23T19:10:10.233Z,18.50
2022-08-23T19:14:12.782Z,18.40
2022-08-23T19:18:14.793Z,18.20
2022-08-23T19:22:16.861Z,18.30
2022-08-23T19:26:21.453Z,18.40
2022-08-23T19:30:23.401Z,18.30
2022-08-23T19:34:30.565Z,18.30
2022-08-23T19:38:33.298Z,18.20
2022-08-23T19:42:37.357Z,18.20
2022-08-23T19:46:42.058Z,18.20
2022-08-23T19:50:44.207Z,18.30
2022-08-23T19:54:46.224Z,18.40
2022-08-23T19:58:48.147Z,18.30
2022-08-23T20:02:50.140Z,18.50
2022-08-23T20:06:52.949Z,18.40
2022-08-23T20:10:54.899Z,18.50
2022-08-23T20:14:57.263Z,18.50
2022-08-23T20:19:00.437Z,18.60
2022-08-23T20:23:20.900Z,18.50
2022-08-23T20:27:24.540Z,18.30
2022-08-23T20:31:36.077Z,18.10
2022-08-23T20:35:38.078Z,18.00
2022-08-23T20:39:39.964Z,17.80
2022-08-23T20:43:42.051Z,17.90
2022-08-23T20:47:44.033Z,18.10
2022-08-23T20:51:45.953Z,18.00
2022-08-23T20:55:47.847Z,17.80
2022-08-23T20:59:49.848Z,17.70
2022-08-23T21:03:52.137Z,17.70
2022-08-23T21:07:55.812Z,17.60
2022-08-23T21:11:58.056Z,17.60
2022-08-23T21:16:00.494Z,17.60
2022-08-23T21:20:02.869Z,17.70
2022-08-23T21:24:09.276Z,17.80
2022-08-23T21:28:11.787Z,17.80
2022-08-23T21:32:14.808Z,17.80
2022-08-23T21:36:17.339Z,17.80
2022-08-23T21:40:19.364Z,17.90
2022-08-23T21:44:22.012Z,18.00
2022-08-23T21:48:26.932Z,18.00
2022-08-23T21:52:28.884Z,18.10
2022-08-23T21:56:31.252Z,18.10
2022-08-23T22:00:35.488Z,18.10
2022-08-23T22:04:38.274Z,18.40
2022-08-23T22:08:41.989Z,17.90
2022-08-23T22:12:44.007Z,18.00
2022-08-23T22:16:46.452Z,17.90
2022-08-23T22:20:48.429Z,17.90
2022-08-23T22:24:51.217Z,17.80
2022-08-23T22:28:53.474Z,17.80
2022-08-23T22:32:55.375Z,17.80
2022-08-23T22:36:57.257Z,17.90
2022-08-23T22:40:59.450Z,17.90
2022-08-23T22:45:01.884Z,17.80
2022-08-23T22:49:04.242Z,17.70
2022-08-23T22:53:06.195Z,16.50
2022-08-23T22:57:08.104Z,17.80
2022-08-23T23:01:17.254Z,17.90
2022-08-23T23:05:20.134Z,17.90
2022-08-23T23:09:22.295Z,18.00
2022-08-23T23:13:25.478Z,17.90
2022-08-23T23:17:27.428Z,17.90
2022-08-23T23:21:39.325Z,17.90
2022-08-23T23:25:42.619Z,17.70
2022-08-23T23:29:44.538Z,17.60
2022-08-23T23:33:46.471Z,17.60
2022-08-23T23:37:49.676Z,17.70
2022-08-23T23:41:52.524Z,17.50
2022-08-23T23:45:54.517Z,17.50
2022-08-23T23:49:56.961Z,17.40
2022-08-23T23:54:01.005Z,17.40
2022-08-23T23:58:03.302Z,17.50
